sensor_id;sensor_type;location;lat;lon;timestamp;temperature;humidity
41060;DHT22;26811;53.160;8.202;2024-02-14T00:01:27;6.90;99.90
41060;DHT22;26811;53.160;8.202;2024-02-14T00:06:27;6.80;99.90
41060;DHT22;26811;53.160;8.202;2024-02-14T00:11:28;6.80;99.90
41060;DHT22;26811;53.160;8.202;2024-02-14T00:16:29;6.70;99.90
41060;DHT22;26811;53.160;8.202;2024-02-14T00:21:32;6.70;99.90
41060;DHT22;26811;53.160;8.202;2024-02-14T00:26:34;6.50;99.90
41060;DHT22;26811;53.160;8.202;2024-02-14T00:31:35;6.40;99.90
41060;DHT22;26811;53.160;8.202;2024-02-14T00:36:35;6.30;99.90
41060;DHT22;26811;53.160;8.202;2024-02-14T00:41:36;6.30;99.90
41060;DHT22;26811;53.160;8.202;2024-02-14T00:46:36;6.30;99.90
41060;DHT22;26811;53.160;8.202;2024-02-14T00:51:37;6.20;99.90
41060;DHT22;26811;53.160;8.202;2024-02-14T00:56:40;6.20;99.90
41060;DHT22;26811;53.160;8.202;2024-02-14T01:01:41;6.20;99.90
41060;DHT22;26811;53.160;8.202;2024-02-14T01:06:41;6.20;99.90
41060;DHT22;26811;53.160;8.202;2024-02-14T01:11:42;6.20;99.90
41060;DHT22;26811;53.160;8.202;2024-02-14T01:16:44;6.20;99.90
41060;DHT22;26811;53.160;8.202;2024-02-14T01:21:44;6.20;99.90
41060;DHT22;26811;53.160;8.202;2024-02-14T01:26:48;6.10;99.90
41060;DHT22;26811;53.160;8.202;2024-02-14T01:31:51;6.10;99.90
41060;DHT22;26811;53.160;8.202;2024-02-14T01:36:51;6.10;99.90
41060;DHT22;26811;53.160;8.202;2024-02-14T01:41:52;6.10;99.90
41060;DHT22;26811;53.160;8.202;2024-02-14T01:46:52;6.10;99.90
41060;DHT22;26811;53.160;8.202;2024-02-14T01:51:54;6.10;99.90
41060;DHT22;26811;53.160;8.202;2024-02-14T01:56:56;6.20;99.90
41060;DHT22;26811;53.160;8.202;2024-02-14T02:01:57;6.20;99.90
41060;DHT22;26811;53.160;8.202;2024-02-14T02:06:58;6.30;99.90
41060;DHT22;26811;53.160;8.202;2024-02-14T02:11:59;6.30;99.90
41060;DHT22;26811;53.160;8.202;2024-02-14T02:17:01;6.30;99.90
41060;DHT22;26811;53.160;8.202;2024-02-14T02:22:02;6.30;99.90
41060;DHT22;26811;53.160;8.202;2024-02-14T02:27:04;6.30;99.90
41060;DHT22;26811;53.160;8.202;2024-02-14T02:32:05;6.30;99.90
41060;DHT22;26811;53.160;8.202;2024-02-14T02:37:06;6.30;99.90
41060;DHT22;26811;53.160;8.202;2024-02-14T02:42:09;6.30;99.90
41060;DHT22;26811;53.160;8.202;2024-02-14T02:47:10;6.40;99.90
41060;DHT22;26811;53.160;8.202;2024-02-14T02:52:13;6.30;99.90
41060;DHT22;26811;53.160;8.202;2024-02-14T02:57:13;6.40;99.90
41060;DHT22;26811;53.160;8.202;2024-02-14T03:02:15;6.40;99.90
41060;DHT22;26811;53.160;8.202;2024-02-14T03:07:16;6.40;99.90
41060;DHT22;26811;53.160;8.202;2024-02-14T03:12:19;6.40;99.90
41060;DHT22;26811;53.160;8.202;2024-02-14T03:17:22;6.50;99.90
41060;DHT22;26811;53.160;8.202;2024-02-14T03:22:22;6.50;99.90
41060;DHT22;26811;53.160;8.202;2024-02-14T03:27:23;6.50;99.90
41060;DHT22;26811;53.160;8.202;2024-02-14T03:32:27;6.50;99.90
41060;DHT22;26811;53.160;8.202;2024-02-14T03:37:27;6.60;99.90
41060;DHT22;26811;53.160;8.202;2024-02-14T03:42:28;6.60;99.90
41060;DHT22;26811;53.160;8.202;2024-02-14T03:47:29;6.60;99.90
41060;DHT22;26811;53.160;8.202;2024-02-14T03:52:31;6.60;99.90
41060;DHT22;26811;53.160;8.202;2024-02-14T03:57:34;6.70;99.90
41060;DHT22;26811;53.160;8.202;2024-02-14T04:02:38;6.70;99.90
41060;DHT22;26811;53.160;8.202;2024-02-14T04:07:40;6.80;99.90
41060;DHT22;26811;53.160;8.202;2024-02-14T04:12:40;6.80;99.90
41060;DHT22;26811;53.160;8.202;2024-02-14T04:17:41;6.80;99.90
41060;DHT22;26811;53.160;8.202;2024-02-14T04:22:41;6.80;99.90
41060;DHT22;26811;53.160;8.202;2024-02-14T04:27:43;6.90;99.90
41060;DHT22;26811;53.160;8.202;2024-02-14T04:32:44;6.90;99.90
41060;DHT22;26811;53.160;8.202;2024-02-14T04:37:44;6.90;99.90
41060;DHT22;26811;53.160;8.202;2024-02-14T04:42:46;7.00;99.90
41060;DHT22;26811;53.160;8.202;2024-02-14T04:47:47;7.00;99.90
41060;DHT22;26811;53.160;8.202;2024-02-14T04:52:47;7.10;99.90
41060;DHT22;26811;53.160;8.202;2024-02-14T04:57:48;7.10;99.90
41060;DHT22;26811;53.160;8.202;2024-02-14T05:02:48;7.10;99.90
41060;DHT22;26811;53.160;8.202;2024-02-14T05:07:49;7.20;99.90
41060;DHT22;26811;53.160;8.202;2024-02-14T05:12:50;7.20;99.90
41060;DHT22;26811;53.160;8.202;2024-02-14T05:17:52;7.20;99.90
41060;DHT22;26811;53.160;8.202;2024-02-14T05:22:52;7.30;99.90
41060;DHT22;26811;53.160;8.202;2024-02-14T05:27:53;7.30;99.90
41060;DHT22;26811;53.160;8.202;2024-02-14T05:32:54;7.40;99.90
41060;DHT22;26811;53.160;8.202;2024-02-14T05:37:55;7.50;99.90
41060;DHT22;26811;53.160;8.202;2024-02-14T05:42:56;7.50;99.90
41060;DHT22;26811;53.160;8.202;2024-02-14T05:47:56;7.60;99.90
41060;DHT22;26811;53.160;8.202;2024-02-14T05:52:58;7.70;99.90
41060;DHT22;26811;53.160;8.202;2024-02-14T05:57:58;7.70;99.90
41060;DHT22;26811;53.160;8.202;2024-02-14T06:02:59;7.80;99.90
41060;DHT22;26811;53.160;8.202;2024-02-14T06:08:00;7.90;99.90
41060;DHT22;26811;53.160;8.202;2024-02-14T06:13:03;8.00;99.90
41060;DHT22;26811;53.160;8.202;2024-02-14T06:18:04;8.00;99.90
41060;DHT22;26811;53.160;8.202;2024-02-14T06:23:04;8.10;99.90
41060;DHT22;26811;53.160;8.202;2024-02-14T06:28:05;8.10;99.90
41060;DHT22;26811;53.160;8.202;2024-02-14T06:33:05;8.20;99.90
41060;DHT22;26811;53.160;8.202;2024-02-14T06:38:06;8.20;99.90
41060;DHT22;26811;53.160;8.202;2024-02-14T06:43:07;8.30;99.90
41060;DHT22;26811;53.160;8.202;2024-02-14T06:48:07;8.30;99.90
41060;DHT22;26811;53.160;8.202;2024-02-14T06:53:09;8.40;99.90
41060;DHT22;26811;53.160;8.202;2024-02-14T06:58:09;8.40;99.90
41060;DHT22;26811;53.160;8.202;2024-02-14T07:03:10;8.50;99.90
41060;DHT22;26811;53.160;8.202;2024-02-14T07:08:10;8.50;99.90
41060;DHT22;26811;53.160;8.202;2024-02-14T07:13:11;8.60;99.90
41060;DHT22;26811;53.160;8.202;2024-02-14T07:18:11;8.70;99.90
41060;DHT22;26811;53.160;8.202;2024-02-14T07:23:12;8.80;99.90
41060;DHT22;26811;53.160;8.202;2024-02-14T07:28:12;8.80;99.90
41060;DHT22;26811;53.160;8.202;2024-02-14T07:33:13;8.90;99.90
41060;DHT22;26811;53.160;8.202;2024-02-14T07:38:13;8.90;99.90
41060;DHT22;26811;53.160;8.202;2024-02-14T07:43:14;9.00;99.90
41060;DHT22;26811;53.160;8.202;2024-02-14T07:48:15;9.00;99.90
41060;DHT22;26811;53.160;8.202;2024-02-14T07:53:15;9.10;99.90
41060;DHT22;26811;53.160;8.202;2024-02-14T07:58:16;9.20;99.90
41060;DHT22;26811;53.160;8.202;2024-02-14T08:03:19;9.20;99.90
41060;DHT22;26811;53.160;8.202;2024-02-14T08:08:19;9.20;99.90
41060;DHT22;26811;53.160;8.202;2024-02-14T08:13:21;9.20;99.90
41060;DHT22;26811;53.160;8.202;2024-02-14T08:18:22;9.30;99.90
41060;DHT22;26811;53.160;8.202;2024-02-14T08:23:23;9.40;99.90
41060;DHT22;26811;53.160;8.202;2024-02-14T08:28:24;9.40;99.90
41060;DHT22;26811;53.160;8.202;2024-02-14T08:33:24;9.50;99.90
41060;DHT22;26811;53.160;8.202;2024-02-14T08:38:25;9.50;99.90
41060;DHT22;26811;53.160;8.202;2024-02-14T08:43:25;9.60;99.90
41060;DHT22;26811;53.160;8.202;2024-02-14T08:48:26;9.70;99.90
41060;DHT22;26811;53.160;8.202;2024-02-14T08:53:29;9.80;99.90
41060;DHT22;26811;53.160;8.202;2024-02-14T08:58:30;9.80;99.90
41060;DHT22;26811;53.160;8.202;2024-02-14T09:03:30;9.90;99.90
41060;DHT22;26811;53.160;8.202;2024-02-14T09:08:31;10.00;99.90
41060;DHT22;26811;53.160;8.202;2024-02-14T09:13:32;10.00;99.90
41060;DHT22;26811;53.160;8.202;2024-02-14T09:18:33;10.10;99.90
41060;DHT22;26811;53.160;8.202;2024-02-14T09:23:33;10.00;99.90
41060;DHT22;26811;53.160;8.202;2024-02-14T09:28:34;10.10;99.90
41060;DHT22;26811;53.160;8.202;2024-02-14T09:33:35;10.10;99.90
41060;DHT22;26811;53.160;8.202;2024-02-14T09:38:37;10.10;99.90
41060;DHT22;26811;53.160;8.202;2024-02-14T09:43:39;10.20;99.90
41060;DHT22;26811;53.160;8.202;2024-02-14T09:48:45;10.20;99.90
41060;DHT22;26811;53.160;8.202;2024-02-14T09:53:46;10.30;99.90
41060;DHT22;26811;53.160;8.202;2024-02-14T09:58:50;10.40;99.90
41060;DHT22;26811;53.160;8.202;2024-02-14T10:03:56;10.40;99.90
41060;DHT22;26811;53.160;8.202;2024-02-14T10:09:22;10.40;99.90
41060;DHT22;26811;53.160;8.202;2024-02-14T10:14:24;10.50;99.90
41060;DHT22;26811;53.160;8.202;2024-02-14T10:19:24;10.60;99.90
41060;DHT22;26811;53.160;8.202;2024-02-14T10:24:28;10.60;99.90
41060;DHT22;26811;53.160;8.202;2024-02-14T10:29:29;10.60;99.90
41060;DHT22;26811;53.160;8.202;2024-02-14T10:34:30;10.60;99.90
41060;DHT22;26811;53.160;8.202;2024-02-14T10:39:37;10.60;99.90
41060;DHT22;26811;53.160;8.202;2024-02-14T10:44:39;10.60;99.90
41060;DHT22;26811;53.160;8.202;2024-02-14T10:49:40;10.60;99.90
41060;DHT22;26811;53.160;8.202;2024-02-14T10:54:54;10.60;99.90
41060;DHT22;26811;53.160;8.202;2024-02-14T11:00:03;10.60;99.90
41060;DHT22;26811;53.160;8.202;2024-02-14T11:05:05;10.60;99.90
41060;DHT22;26811;53.160;8.202;2024-02-14T11:10:07;10.60;99.90
41060;DHT22;26811;53.160;8.202;2024-02-14T11:15:14;10.60;99.90
41060;DHT22;26811;53.160;8.202;2024-02-14T11:20:21;10.60;99.90
41060;DHT22;26811;53.160;8.202;2024-02-14T11:25:23;10.60;99.90
41060;DHT22;26811;53.160;8.202;2024-02-14T11:30:33;10.60;99.90
41060;DHT22;26811;53.160;8.202;2024-02-14T11:35:35;10.60;99.90
41060;DHT22;26811;53.160;8.202;2024-02-14T11:40:37;10.60;99.90
41060;DHT22;26811;53.160;8.202;2024-02-14T11:45:42;10.60;99.90
41060;DHT22;26811;53.160;8.202;2024-02-14T11:50:44;10.60;99.90
41060;DHT22;26811;53.160;8.202;2024-02-14T11:55:45;10.70;99.90
41060;DHT22;26811;53.160;8.202;2024-02-14T12:00:49;10.60;99.90
41060;DHT22;26811;53.160;8.202;2024-02-14T12:05:52;10.60;99.90
41060;DHT22;26811;53.160;8.202;2024-02-14T12:10:53;10.70;99.90
41060;DHT22;26811;53.160;8.202;2024-02-14T12:15:54;10.70;99.90
41060;DHT22;26811;53.160;8.202;2024-02-14T12:21:04;10.70;99.90
41060;DHT22;26811;53.160;8.202;2024-02-14T12:26:08;10.70;99.90
41060;DHT22;26811;53.160;8.202;2024-02-14T12:31:22;10.80;99.90
41060;DHT22;26811;53.160;8.202;2024-02-14T12:36:22;10.80;99.90
41060;DHT22;26811;53.160;8.202;2024-02-14T12:41:23;10.80;99.90
41060;DHT22;26811;53.160;8.202;2024-02-14T12:46:26;10.90;99.90
41060;DHT22;26811;53.160;8.202;2024-02-14T12:51:27;10.90;99.90
41060;DHT22;26811;53.160;8.202;2024-02-14T12:56:28;10.90;99.90
41060;DHT22;26811;53.160;8.202;2024-02-14T13:01:29;10.90;99.90
41060;DHT22;26811;53.160;8.202;2024-02-14T13:06:30;10.90;99.90
41060;DHT22;26811;53.160;8.202;2024-02-14T13:11:31;11.00;99.90
41060;DHT22;26811;53.160;8.202;2024-02-14T13:16:32;11.10;99.90
41060;DHT22;26811;53.160;8.202;2024-02-14T13:21:32;11.10;99.90
41060;DHT22;26811;53.160;8.202;2024-02-14T13:26:34;11.10;99.90
41060;DHT22;26811;53.160;8.202;2024-02-14T13:31:34;11.10;99.90
41060;DHT22;26811;53.160;8.202;2024-02-14T13:36:35;11.10;99.90
41060;DHT22;26811;53.160;8.202;2024-02-14T13:41:36;11.10;99.90
41060;DHT22;26811;53.160;8.202;2024-02-14T13:46:38;11.10;99.90
41060;DHT22;26811;53.160;8.202;2024-02-14T13:51:43;11.10;99.90
41060;DHT22;26811;53.160;8.202;2024-02-14T13:56:44;11.10;99.90
41060;DHT22;26811;53.160;8.202;2024-02-14T14:01:45;11.10;99.90
41060;DHT22;26811;53.160;8.202;2024-02-14T14:06:49;11.10;99.90
41060;DHT22;26811;53.160;8.202;2024-02-14T14:11:49;11.00;99.90
41060;DHT22;26811;53.160;8.202;2024-02-14T14:16:51;11.10;99.90
41060;DHT22;26811;53.160;8.202;2024-02-14T14:21:52;11.10;99.90
41060;DHT22;26811;53.160;8.202;2024-02-14T14:26:52;11.10;99.90
41060;DHT22;26811;53.160;8.202;2024-02-14T14:31:53;11.20;99.90
41060;DHT22;26811;53.160;8.202;2024-02-14T14:36:54;11.20;99.90
41060;DHT22;26811;53.160;8.202;2024-02-14T14:41:55;11.20;99.90
41060;DHT22;26811;53.160;8.202;2024-02-14T14:46:58;11.20;99.90
41060;DHT22;26811;53.160;8.202;2024-02-14T14:51:59;11.10;99.90
41060;DHT22;26811;53.160;8.202;2024-02-14T14:56:59;11.10;99.90
41060;DHT22;26811;53.160;8.202;2024-02-14T15:02:04;11.20;99.90
41060;DHT22;26811;53.160;8.202;2024-02-14T15:07:06;11.10;99.90
41060;DHT22;26811;53.160;8.202;2024-02-14T15:12:06;11.10;99.90
41060;DHT22;26811;53.160;8.202;2024-02-14T15:17:08;11.10;99.90
41060;DHT22;26811;53.160;8.202;2024-02-14T15:22:08;11.10;99.90
41060;DHT22;26811;53.160;8.202;2024-02-14T15:27:09;11.10;99.90
41060;DHT22;26811;53.160;8.202;2024-02-14T15:32:11;11.10;99.90
41060;DHT22;26811;53.160;8.202;2024-02-14T15:37:30;11.10;99.90
41060;DHT22;26811;53.160;8.202;2024-02-14T15:42:30;11.10;99.90
41060;DHT22;26811;53.160;8.202;2024-02-14T15:47:31;11.10;99.90
41060;DHT22;26811;53.160;8.202;2024-02-14T15:52:32;11.10;99.90
41060;DHT22;26811;53.160;8.202;2024-02-14T15:57:32;11.10;99.90
41060;DHT22;26811;53.160;8.202;2024-02-14T16:02:33;11.10;99.90
41060;DHT22;26811;53.160;8.202;2024-02-14T16:07:37;11.10;99.90
41060;DHT22;26811;53.160;8.202;2024-02-14T16:12:38;11.10;99.90
41060;DHT22;26811;53.160;8.202;2024-02-14T16:17:41;11.10;99.90
41060;DHT22;26811;53.160;8.202;2024-02-14T16:22:42;11.00;99.90
41060;DHT22;26811;53.160;8.202;2024-02-14T16:27:43;11.00;99.90
41060;DHT22;26811;53.160;8.202;2024-02-14T16:32:48;11.00;99.90
41060;DHT22;26811;53.160;8.202;2024-02-14T16:37:48;11.00;99.90
41060;DHT22;26811;53.160;8.202;2024-02-14T16:42:49;11.00;99.90
41060;DHT22;26811;53.160;8.202;2024-02-14T16:47:50;11.00;99.90
41060;DHT22;26811;53.160;8.202;2024-02-14T16:52:51;11.00;99.90
41060;DHT22;26811;53.160;8.202;2024-02-14T16:57:52;11.00;99.90
41060;DHT22;26811;53.160;8.202;2024-02-14T17:02:53;11.00;99.90
41060;DHT22;26811;53.160;8.202;2024-02-14T17:07:53;11.00;99.90
41060;DHT22;26811;53.160;8.202;2024-02-14T17:12:54;11.00;99.90
41060;DHT22;26811;53.160;8.202;2024-02-14T17:17:55;11.00;99.90
41060;DHT22;26811;53.160;8.202;2024-02-14T17:22:55;11.00;99.90
41060;DHT22;26811;53.160;8.202;2024-02-14T17:27:56;11.00;99.90
41060;DHT22;26811;53.160;8.202;2024-02-14T17:32:57;11.00;99.90
41060;DHT22;26811;53.160;8.202;2024-02-14T17:38:02;11.00;99.90
41060;DHT22;26811;53.160;8.202;2024-02-14T17:43:02;11.00;99.90
41060;DHT22;26811;53.160;8.202;2024-02-14T17:48:03;11.10;99.90
41060;DHT22;26811;53.160;8.202;2024-02-14T17:53:04;11.00;99.90
41060;DHT22;26811;53.160;8.202;2024-02-14T17:58:07;11.00;99.90
41060;DHT22;26811;53.160;8.202;2024-02-14T18:03:08;11.10;99.90
41060;DHT22;26811;53.160;8.202;2024-02-14T18:08:09;11.10;99.90
41060;DHT22;26811;53.160;8.202;2024-02-14T18:13:10;11.10;99.90
41060;DHT22;26811;53.160;8.202;2024-02-14T18:18:10;11.10;99.90
41060;DHT22;26811;53.160;8.202;2024-02-14T18:23:11;11.10;99.90
41060;DHT22;26811;53.160;8.202;2024-02-14T18:28:11;11.10;99.90
41060;DHT22;26811;53.160;8.202;2024-02-14T18:33:12;11.10;99.90
41060;DHT22;26811;53.160;8.202;2024-02-14T18:38:13;11.10;99.90
41060;DHT22;26811;53.160;8.202;2024-02-14T18:43:15;11.10;99.90
41060;DHT22;26811;53.160;8.202;2024-02-14T18:48:15;11.10;99.90
41060;DHT22;26811;53.160;8.202;2024-02-14T18:53:19;11.10;99.90
41060;DHT22;26811;53.160;8.202;2024-02-14T18:58:19;11.10;99.90
41060;DHT22;26811;53.160;8.202;2024-02-14T19:03:20;11.10;99.90
41060;DHT22;26811;53.160;8.202;2024-02-14T19:08:21;11.10;99.90
41060;DHT22;26811;53.160;8.202;2024-02-14T19:13:22;11.10;99.90
41060;DHT22;26811;53.160;8.202;2024-02-14T19:18:32;11.10;99.90
41060;DHT22;26811;53.160;8.202;2024-02-14T19:23:33;11.10;99.90
41060;DHT22;26811;53.160;8.202;2024-02-14T19:28:36;11.10;99.90
41060;DHT22;26811;53.160;8.202;2024-02-14T19:33:37;11.10;99.90
41060;DHT22;26811;53.160;8.202;2024-02-14T19:38:38;11.10;99.90
41060;DHT22;26811;53.160;8.202;2024-02-14T19:43:38;11.10;99.90
41060;DHT22;26811;53.160;8.202;2024-02-14T19:48:42;11.20;99.90
41060;DHT22;26811;53.160;8.202;2024-02-14T19:53:47;11.20;99.90
41060;DHT22;26811;53.160;8.202;2024-02-14T19:58:48;11.10;99.90
41060;DHT22;26811;53.160;8.202;2024-02-14T20:03:49;11.10;99.90
41060;DHT22;26811;53.160;8.202;2024-02-14T20:08:57;11.10;99.90
41060;DHT22;26811;53.160;8.202;2024-02-14T20:14:00;11.20;99.90
41060;DHT22;26811;53.160;8.202;2024-02-14T20:19:03;11.20;99.90
41060;DHT22;26811;53.160;8.202;2024-02-14T20:24:05;11.20;99.90
41060;DHT22;26811;53.160;8.202;2024-02-14T20:29:08;11.20;99.90
41060;DHT22;26811;53.160;8.202;2024-02-14T20:34:11;11.20;99.90
41060;DHT22;26811;53.160;8.202;2024-02-14T20:39:12;11.30;99.90
41060;DHT22;26811;53.160;8.202;2024-02-14T20:44:12;11.20;99.90
41060;DHT22;26811;53.160;8.202;2024-02-14T20:49:17;11.20;99.90
41060;DHT22;26811;53.160;8.202;2024-02-14T20:54:17;11.30;99.90
41060;DHT22;26811;53.160;8.202;2024-02-14T20:59:21;11.30;99.90
41060;DHT22;26811;53.160;8.202;2024-02-14T21:04:21;11.30;99.90
41060;DHT22;26811;53.160;8.202;2024-02-14T21:09:22;11.30;99.90
41060;DHT22;26811;53.160;8.202;2024-02-14T21:14:22;11.30;99.90
41060;DHT22;26811;53.160;8.202;2024-02-14T21:19:23;11.30;99.90
41060;DHT22;26811;53.160;8.202;2024-02-14T21:24:24;11.40;99.90
41060;DHT22;26811;53.160;8.202;2024-02-14T21:29:24;11.40;99.90
41060;DHT22;26811;53.160;8.202;2024-02-14T21:34:25;11.40;99.90
41060;DHT22;26811;53.160;8.202;2024-02-14T21:39:27;11.40;99.90
41060;DHT22;26811;53.160;8.202;2024-02-14T21:44:27;11.40;99.90
41060;DHT22;26811;53.160;8.202;2024-02-14T21:49:29;11.40;99.90
41060;DHT22;26811;53.160;8.202;2024-02-14T21:54:31;11.40;99.90
41060;DHT22;26811;53.160;8.202;2024-02-14T21:59:32;11.40;99.90
41060;DHT22;26811;53.160;8.202;2024-02-14T22:04:33;11.40;99.90
41060;DHT22;26811;53.160;8.202;2024-02-14T22:09:42;11.40;99.90
41060;DHT22;26811;53.160;8.202;2024-02-14T22:14:52;11.40;99.90
41060;DHT22;26811;53.160;8.202;2024-02-14T22:19:52;11.40;99.90
41060;DHT22;26811;53.160;8.202;2024-02-14T22:24:53;11.40;99.90
41060;DHT22;26811;53.160;8.202;2024-02-14T22:29:54;11.40;99.90
41060;DHT22;26811;53.160;8.202;2024-02-14T22:34:54;11.30;99.90
41060;DHT22;26811;53.160;8.202;2024-02-14T22:39:55;11.40;99.90
41060;DHT22;26811;53.160;8.202;2024-02-14T22:44:56;11.30;99.90
41060;DHT22;26811;53.160;8.202;2024-02-14T22:49:56;11.40;99.90
41060;DHT22;26811;53.160;8.202;2024-02-14T22:54:57;11.30;99.90
41060;DHT22;26811;53.160;8.202;2024-02-14T22:59:57;11.40;99.90
41060;DHT22;26811;53.160;8.202;2024-02-14T23:04:58;11.40;99.90
41060;DHT22;26811;53.160;8.202;2024-02-14T23:09:59;11.30;99.90
41060;DHT22;26811;53.160;8.202;2024-02-14T23:14:59;11.30;99.90
41060;DHT22;26811;53.160;8.202;2024-02-14T23:20:00;11.40;99.90
41060;DHT22;26811;53.160;8.202;2024-02-14T23:25:07;11.40;99.90
41060;DHT22;26811;53.160;8.202;2024-02-14T23:30:11;11.30;99.90
41060;DHT22;26811;53.160;8.202;2024-02-14T23:35:13;11.40;99.90
41060;DHT22;26811;53.160;8.202;2024-02-14T23:40:14;11.40;99.90
41060;DHT22;26811;53.160;8.202;2024-02-14T23:45:15;11.40;99.90
41060;DHT22;26811;53.160;8.202;2024-02-14T23:50:16;11.40;99.90
41060;DHT22;26811;53.160;8.202;2024-02-14T23:55:18;11.40;99.90
